Time;durP1;ratioP1;P1;durP2;ratioP2;P2;SDS_P1;SDS_P2;PMS_P1;PMS_P2;Temp;Humidity;BMP_temperature;BMP_pressure;BME280_temperature;BME280_humidity;BME280_pressure;Samples;Min_cycle;Max_cycle;Signal;HPM_P1;HPM_P2
2022/01/23 00:02:19;;;;;;;;;;;5.80;59.50;;;;;;4974910;28;19922;-68
2022/01/23 00:04:44;;;;;;;;;;;5.80;59.80;;;;;;4974517;28;19914;-68
2022/01/23 00:07:13;;;;;;;;;;;5.80;60.00;;;;;;4974801;28;19969;-68
2022/01/23 00:09:39;;;;;;;;;;;5.70;60.00;;;;;;4974776;28;19911;-69
2022/01/23 00:12:10;;;;;;;;;;;5.60;60.50;;;;;;4974524;28;19915;-70
2022/01/23 00:17:23;;;;;;;;;;;5.60;60.80;;;;;;4974930;28;19957;-67
2022/01/23 00:19:53;;;;;;;;;;;5.70;60.30;;;;;;4974563;28;19950;-69
2022/01/23 00:22:19;;;;;;;;;;;5.70;60.80;;;;;;4974377;28;20370;-68
2022/01/23 00:30:30;;;;;;;;;;;5.60;61.10;;;;;;4974312;28;20038;-70
2022/01/23 00:32:57;;;;;;;;;;;5.60;61.20;;;;;;4974713;28;19972;-69
2022/01/23 00:35:24;;;;;;;;;;;5.50;61.20;;;;;;4974350;28;20000;-61
2022/01/23 00:37:49;;;;;;;;;;;5.50;61.70;;;;;;4974402;28;20397;-63
2022/01/23 00:40:15;;;;;;;;;;;5.60;61.10;;;;;;4974517;28;19961;-62
2022/01/23 00:42:41;;;;;;;;;;;5.40;61.80;;;;;;4974310;28;19924;-71
2022/01/23 00:47:54;;;;;;;;;;;5.10;63.50;;;;;;4974300;28;19910;-70
2022/01/23 00:50:19;;;;;;;;;;;5.00;63.80;;;;;;4974540;28;19916;-70
2022/01/23 00:52:45;;;;;;;;;;;5.10;63.30;;;;;;4974214;28;20314;-68
2022/01/23 00:55:10;;;;;;;;;;;5.30;62.30;;;;;;4974579;28;19910;-69
2022/01/23 00:57:36;;;;;;;;;;;5.20;62.80;;;;;;4974362;28;19911;-70
2022/01/23 01:00:03;;;;;;;;;;;5.10;63.00;;;;;;4974477;28;20412;-68
2022/01/23 01:02:29;;;;;;;;;;;5.00;63.40;;;;;;4974119;28;20000;-71
2022/01/23 01:04:54;;;;;;;;;;;5.00;63.60;;;;;;4973885;28;19910;-72
2022/01/23 01:07:20;;;;;;;;;;;4.90;63.70;;;;;;4974321;28;19915;-70
2022/01/23 01:09:49;;;;;;;;;;;4.90;63.80;;;;;;4974309;28;19910;-70
2022/01/23 01:12:27;;;;;;;;;;;4.80;64.30;;;;;;4974412;28;20370;-70
2022/01/23 01:33:36;;;;;;;;;;;4.40;66.10;;;;;;4973959;28;19910;-69
2022/01/23 01:36:17;;;;;;;;;;;4.20;66.80;;;;;;4974148;28;20283;-69
2022/01/23 01:38:43;;;;;;;;;;;4.30;66.80;;;;;;4974142;28;19949;-70
2022/01/23 01:41:08;;;;;;;;;;;4.60;65.50;;;;;;4974867;28;19961;-68
2022/01/23 01:43:34;;;;;;;;;;;4.70;64.30;;;;;;4977582;28;20382;-70
2022/01/23 01:46:00;;;;;;;;;;;4.90;63.70;;;;;;4977541;28;20263;-70
2022/01/23 01:48:26;;;;;;;;;;;5.00;63.20;;;;;;4977318;28;19917;-70
2022/01/23 01:50:54;;;;;;;;;;;5.10;62.30;;;;;;4977387;28;20004;-69
2022/01/23 01:53:20;;;;;;;;;;;4.90;62.60;;;;;;4977250;28;19911;-67
2022/01/23 01:55:51;;;;;;;;;;;4.70;64.50;;;;;;4977300;28;19948;-71
2022/01/23 01:59:09;;;;;;;;;;;4.50;65.30;;;;;;4977277;28;19969;-65
2022/01/23 02:55:14;;;;;;;;;;;4.40;65.00;;;;;;4976467;28;20511;-61
2022/01/23 03:00:15;;;;;;;;;;;4.30;66.20;;;;;;4976518;28;19964;-63
2022/01/23 03:02:47;;;;;;;;;;;4.40;66.00;;;;;;4976310;28;19925;-64
2022/01/23 03:05:22;;;;;;;;;;;4.30;66.50;;;;;;4975848;28;20008;-68
2022/01/23 03:10:27;;;;;;;;;;;4.10;67.20;;;;;;4976196;28;20369;-65
2022/01/23 03:32:00;;;;;;;;;;;4.30;66.60;;;;;;4975544;28;19916;-63
2022/01/23 03:34:27;;;;;;;;;;;4.30;67.00;;;;;;4975318;28;20302;-64
2022/01/23 03:36:53;;;;;;;;;;;4.20;67.60;;;;;;4975544;28;19914;-68
2022/01/23 03:39:19;;;;;;;;;;;4.10;68.50;;;;;;4975450;28;19911;-64
2022/01/23 03:41:45;;;;;;;;;;;4.10;68.20;;;;;;4974088;28;19928;-63
2022/01/23 03:44:12;;;;;;;;;;;4.10;67.90;;;;;;4975521;28;19917;-63
2022/01/23 03:49:31;;;;;;;;;;;4.10;68.30;;;;;;4975387;28;20330;-65
2022/01/23 03:51:57;;;;;;;;;;;4.30;67.40;;;;;;4975303;28;19917;-67
2022/01/23 03:54:24;;;;;;;;;;;4.70;65.50;;;;;;4975364;28;19942;-69
2022/01/23 03:56:50;;;;;;;;;;;5.00;63.30;;;;;;4975039;28;19964;-71
2022/01/23 03:59:15;;;;;;;;;;;5.20;62.60;;;;;;4975091;28;19937;-68
2022/01/23 04:01:41;;;;;;;;;;;5.30;62.80;;;;;;4974993;28;19969;-68
2022/01/23 04:04:19;;;;;;;;;;;5.40;61.50;;;;;;4974629;28;19933;-72
2022/01/23 04:06:45;;;;;;;;;;;5.60;61.00;;;;;;4975038;28;19926;-70
2022/01/23 04:09:11;;;;;;;;;;;5.40;61.30;;;;;;4975018;28;20376;-69
2022/01/23 04:11:36;;;;;;;;;;;5.00;63.50;;;;;;4975107;28;19953;-68
2022/01/23 04:14:07;;;;;;;;;;;4.80;64.80;;;;;;4974770;28;19918;-68
2022/01/23 04:19:35;;;;;;;;;;;4.50;66.10;;;;;;4975173;28;19976;-68
2022/01/23 04:33:16;;;;;;;;;;;4.20;67.60;;;;;;4991769;28;19917;-66
2022/01/23 05:00:21;;;;;;;;;;;5.30;65.30;;;;;;4974768;28;19917;-63
2022/01/23 05:03:04;;;;;;;;;;;5.30;65.30;;;;;;4974215;28;20271;-67
2022/01/23 05:05:33;;;;;;;;;;;5.20;65.50;;;;;;4974079;28;19929;-64
2022/01/23 05:08:03;;;;;;;;;;;5.20;66.10;;;;;;4973740;28;19964;-64
2022/01/23 05:10:29;;;;;;;;;;;5.00;66.30;;;;;;4974271;28;20335;-63
2022/01/23 05:12:54;;;;;;;;;;;4.90;67.40;;;;;;4974439;28;19964;-62
2022/01/23 05:15:20;;;;;;;;;;;4.70;69.10;;;;;;4974326;28;19941;-63
2022/01/23 05:17:47;;;;;;;;;;;4.70;70.90;;;;;;4977678;28;19917;-63
2022/01/23 05:20:14;;;;;;;;;;;4.50;71.70;;;;;;4977971;28;19997;-67
2022/01/23 05:22:47;;;;;;;;;;;4.40;72.20;;;;;;4977919;28;19973;-62
2022/01/23 05:25:22;;;;;;;;;;;4.30;72.00;;;;;;4977928;28;20307;-67
2022/01/23 05:27:52;;;;;;;;;;;4.30;72.00;;;;;;4977858;28;19910;-71
2022/01/23 05:30:18;;;;;;;;;;;4.30;72.20;;;;;;4976544;28;19929;-67
2022/01/23 05:32:43;;;;;;;;;;;4.30;72.80;;;;;;4977684;28;19914;-66
2022/01/23 05:35:10;;;;;;;;;;;4.40;71.70;;;;;;4977676;28;20424;-62
2022/01/23 05:37:37;;;;;;;;;;;4.40;71.10;;;;;;4977384;28;19913;-65
2022/01/23 05:40:04;;;;;;;;;;;4.30;71.80;;;;;;4977559;28;19910;-68
2022/01/23 05:42:30;;;;;;;;;;;4.30;72.10;;;;;;4977247;28;20001;-66
2022/01/23 05:44:55;;;;;;;;;;;4.40;71.90;;;;;;4977630;28;19956;-70
2022/01/23 05:47:21;;;;;;;;;;;4.60;71.40;;;;;;4977464;28;19917;-71
2022/01/23 05:49:46;;;;;;;;;;;4.60;71.20;;;;;;4977406;28;19917;-71
2022/01/23 05:52:12;;;;;;;;;;;4.70;71.20;;;;;;4977246;28;19911;-71
2022/01/23 05:54:38;;;;;;;;;;;4.60;71.60;;;;;;4977142;28;19933;-70
2022/01/23 05:57:04;;;;;;;;;;;4.50;72.10;;;;;;4977101;28;19910;-71
2022/01/23 05:59:29;;;;;;;;;;;4.50;72.00;;;;;;4977091;28;19910;-71
2022/01/23 06:01:55;;;;;;;;;;;4.60;71.70;;;;;;4976966;28;20005;-71
2022/01/23 06:04:21;;;;;;;;;;;4.60;71.50;;;;;;4977027;28;20366;-70
2022/01/23 06:06:48;;;;;;;;;;;4.60;71.50;;;;;;4977019;28;20382;-71
2022/01/23 06:09:15;;;;;;;;;;;4.50;71.70;;;;;;4977074;28;20393;-72
2022/01/23 06:11:40;;;;;;;;;;;4.70;71.40;;;;;;4976934;28;20001;-70
2022/01/23 06:14:08;;;;;;;;;;;5.00;70.90;;;;;;4977026;28;20358;-72
2022/01/23 06:16:37;;;;;;;;;;;5.10;69.90;;;;;;4977291;28;20000;-71
2022/01/23 06:19:03;;;;;;;;;;;5.10;69.90;;;;;;4976555;28;20298;-69
2022/01/23 06:21:28;;;;;;;;;;;5.20;70.00;;;;;;4977881;28;19937;-70
2022/01/23 06:24:24;;;;;;;;;;;5.20;69.60;;;;;;4977087;28;19917;-70
2022/01/23 06:26:59;;;;;;;;;;;5.20;69.70;;;;;;4976272;28;19910;-67
2022/01/23 06:29:25;;;;;;;;;;;4.90;70.10;;;;;;4976564;28;20009;-71
2022/01/23 06:31:53;;;;;;;;;;;4.70;71.90;;;;;;4976337;28;20366;-70
2022/01/23 06:34:19;;;;;;;;;;;4.60;74.40;;;;;;4976674;28;19917;-62
2022/01/23 06:36:45;;;;;;;;;;;4.60;74.90;;;;;;4976430;28;20294;-70
2022/01/23 06:39:12;;;;;;;;;;;4.60;74.20;;;;;;4976425;28;19910;-69
2022/01/23 06:41:38;;;;;;;;;;;4.60;73.90;;;;;;4976063;28;20433;-71
2022/01/23 06:44:04;;;;;;;;;;;4.60;73.80;;;;;;4976364;28;19910;-71
2022/01/23 06:46:31;;;;;;;;;;;4.70;73.50;;;;;;4975990;28;20335;-70
2022/01/23 06:48:57;;;;;;;;;;;4.80;72.80;;;;;;4976037;28;19953;-68
2022/01/23 06:51:22;;;;;;;;;;;4.80;72.80;;;;;;4974631;28;19965;-69
2022/01/23 06:53:48;;;;;;;;;;;4.70;72.90;;;;;;4975905;28;19910;-70
2022/01/23 06:56:14;;;;;;;;;;;4.70;73.50;;;;;;4975880;28;20013;-69
2022/01/23 06:58:39;;;;;;;;;;;4.70;73.80;;;;;;4976228;28;20375;-66
2022/01/23 07:01:07;;;;;;;;;;;4.50;74.60;;;;;;4975240;28;19917;-63
2022/01/23 07:03:36;;;;;;;;;;;4.50;75.40;;;;;;4974586;28;19941;-60
2022/01/23 07:06:02;;;;;;;;;;;5.10;83.30;;;;;;4974699;28;19968;-61
2022/01/23 07:08:28;;;;;;;;;;;5.40;74.10;;;;;;4975008;28;19916;-62
2022/01/23 07:10:53;;;;;;;;;;;5.10;72.10;;;;;;4974942;28;20283;-61
2022/01/23 07:13:19;;;;;;;;;;;5.10;72.40;;;;;;4974780;28;19925;-62
2022/01/23 07:15:44;;;;;;;;;;;5.20;72.30;;;;;;4974958;28;19954;-61
2022/01/23 07:18:10;;;;;;;;;;;5.30;72.30;;;;;;4972660;28;19914;-61
2022/01/23 07:20:36;;;;;;;;;;;5.40;72.60;;;;;;4974584;28;19910;-61
2022/01/23 07:23:02;;;;;;;;;;;6.50;74.60;;;;;;4974459;28;19954;-58
2022/01/23 07:25:27;;;;;;;;;;;7.30;70.30;;;;;;4974751;28;20433;-66
2022/01/23 07:27:56;;;;;;;;;;;7.70;64.30;;;;;;4974363;28;19921;-63
2022/01/23 07:32:50;;;;;;;;;;;7.00;64.20;;;;;;4974289;28;19914;-62
2022/01/23 07:35:16;;;;;;;;;;;6.50;65.90;;;;;;4974562;28;19957;-65
2022/01/23 07:37:41;;;;;;;;;;;6.20;67.60;;;;;;4973910;28;19910;-64
2022/01/23 07:40:07;;;;;;;;;;;5.90;68.90;;;;;;4974074;28;19917;-65
2022/01/23 07:42:33;;;;;;;;;;;5.80;69.90;;;;;;4972609;28;20267;-60
2022/01/23 07:44:59;;;;;;;;;;;5.80;70.90;;;;;;4974200;28;19951;-60
2022/01/23 07:47:25;;;;;;;;;;;5.60;70.90;;;;;;4971808;28;19910;-60
2022/01/23 07:49:50;;;;;;;;;;;5.60;72.00;;;;;;4974463;28;19917;-62
2022/01/23 07:52:17;;;;;;;;;;;5.60;71.70;;;;;;4972512;28;20009;-63
2022/01/23 07:54:43;;;;;;;;;;;5.50;72.20;;;;;;4974560;28;19918;-70
2022/01/23 07:57:09;;;;;;;;;;;5.80;73.30;;;;;;4976237;28;19910;-64
2022/01/23 07:59:34;;;;;;;;;;;6.00;72.30;;;;;;4972836;28;19946;-62
2022/01/23 08:02:00;;;;;;;;;;;6.10;71.50;;;;;;4972025;28;20017;-62
2022/01/23 08:04:25;;;;;;;;;;;6.30;70.90;;;;;;4973421;28;20013;-67
2022/01/23 08:07:06;;;;;;;;;;;6.60;70.00;;;;;;4970371;28;20378;-61
2022/01/23 08:09:32;;;;;;;;;;;6.90;67.90;;;;;;4972171;28;19914;-65
2022/01/23 08:11:57;;;;;;;;;;;7.00;67.00;;;;;;4973709;28;19914;-62
2022/01/23 08:14:23;;;;;;;;;;;7.00;67.10;;;;;;4971981;28;19914;-63
2022/01/23 08:16:48;;;;;;;;;;;7.10;67.60;;;;;;4973030;28;19925;-64
2022/01/23 08:19:14;;;;;;;;;;;7.20;67.80;;;;;;4972645;28;19918;-61
2022/01/23 08:21:40;;;;;;;;;;;7.40;67.30;;;;;;4973823;28;20068;-71
2022/01/23 08:24:05;;;;;;;;;;;7.60;67.40;;;;;;4972337;28;19922;-63
2022/01/23 08:26:31;;;;;;;;;;;7.60;68.20;;;;;;4973355;28;20024;-62
2022/01/23 08:28:57;;;;;;;;;;;7.70;67.80;;;;;;4973399;28;19933;-61
2022/01/23 08:31:22;;;;;;;;;;;7.70;67.70;;;;;;4973448;28;19917;-63
2022/01/23 08:33:48;;;;;;;;;;;7.70;67.60;;;;;;4974123;28;20009;-62
2022/01/23 08:36:14;;;;;;;;;;;7.80;67.60;;;;;;4973320;28;19949;-62
2022/01/23 08:38:40;;;;;;;;;;;7.80;68.00;;;;;;4973250;28;19911;-63
2022/01/23 08:43:37;;;;;;;;;;;7.80;68.00;;;;;;4975110;28;19997;-69
2022/01/23 08:46:03;;;;;;;;;;;8.00;67.70;;;;;;4966377;28;20008;-67
2022/01/23 08:48:29;;;;;;;;;;;8.20;67.20;;;;;;4969719;28;20523;-65
2022/01/23 08:50:55;;;;;;;;;;;8.30;67.10;;;;;;4974438;28;20171;-65
2022/01/23 08:53:20;;;;;;;;;;;8.50;66.70;;;;;;4975730;28;20376;-66
2022/01/23 08:55:47;;;;;;;;;;;8.70;66.60;;;;;;4975876;28;19937;-66
2022/01/23 08:58:14;;;;;;;;;;;8.90;65.40;;;;;;4975616;28;20009;-64
2022/01/23 09:00:39;;;;;;;;;;;8.90;64.70;;;;;;4975425;28;19936;-65
2022/01/23 09:03:05;;;;;;;;;;;9.00;64.40;;;;;;4975324;28;19928;-68
2022/01/23 09:05:30;;;;;;;;;;;8.90;64.80;;;;;;4975734;28;19941;-66
2022/01/23 09:07:56;;;;;;;;;;;9.00;64.70;;;;;;4975247;28;20033;-69
2022/01/23 09:10:27;;;;;;;;;;;9.10;64.40;;;;;;4975688;28;19914;-64
2022/01/23 09:13:28;;;;;;;;;;;9.00;64.00;;;;;;4976069;28;20294;-62
2022/01/23 09:15:53;;;;;;;;;;;9.00;65.20;;;;;;4974781;28;19916;-61
2022/01/23 09:18:19;;;;;;;;;;;9.10;64.90;;;;;;4975433;28;19989;-61
2022/01/23 09:20:44;;;;;;;;;;;9.20;64.30;;;;;;4976209;28;19921;-63
2022/01/23 09:23:10;;;;;;;;;;;9.30;64.30;;;;;;5007349;28;19993;-65
2022/01/23 09:25:35;;;;;;;;;;;9.60;62.90;;;;;;4976307;28;19968;-61
2022/01/23 09:28:04;;;;;;;;;;;9.60;61.30;;;;;;4976102;28;19918;-64
2022/01/23 09:30:35;;;;;;;;;;;9.60;61.20;;;;;;4976064;28;19997;-64
2022/01/23 09:33:01;;;;;;;;;;;9.60;62.00;;;;;;4975721;28;19918;-65
2022/01/23 09:35:26;;;;;;;;;;;9.70;61.10;;;;;;4976386;28;20006;-67
2022/01/23 09:37:53;;;;;;;;;;;9.80;60.90;;;;;;4976729;28;19914;-71
2022/01/23 09:40:18;;;;;;;;;;;9.90;60.10;;;;;;4977275;28;19918;-69
2022/01/23 09:42:54;;;;;;;;;;;10.00;59.60;;;;;;4977567;28;19986;-66
2022/01/23 09:45:20;;;;;;;;;;;10.10;59.00;;;;;;4983618;28;19999;-67
2022/01/23 09:47:46;;;;;;;;;;;10.20;59.10;;;;;;4984771;28;19929;-63
2022/01/23 09:50:14;;;;;;;;;;;10.30;58.80;;;;;;4983698;28;19981;-65
2022/01/23 09:52:40;;;;;;;;;;;10.40;62.60;;;;;;4986976;28;19921;-64
2022/01/23 09:55:09;;;;;;;;;;;10.50;59.10;;;;;;4985441;28;19974;-68
2022/01/23 09:57:35;;;;;;;;;;;10.40;57.20;;;;;;4980382;28;20469;-67
2022/01/23 10:00:02;;;;;;;;;;;10.30;57.40;;;;;;4976880;28;19914;-62
2022/01/23 10:02:30;;;;;;;;;;;10.30;59.10;;;;;;4972345;28;19930;-67
2022/01/23 10:04:56;;;;;;;;;;;10.40;59.40;;;;;;4978177;28;19921;-65
2022/01/23 10:07:22;;;;;;;;;;;10.50;59.90;;;;;;4979657;28;19918;-65
2022/01/23 10:09:53;;;;;;;;;;;10.50;60.40;;;;;;4977179;28;20374;-64
2022/01/23 10:12:20;;;;;;;;;;;10.00;61.80;;;;;;4976926;28;19925;-63
2022/01/23 10:14:46;;;;;;;;;;;9.60;63.50;;;;;;4977009;28;19914;-64
2022/01/23 10:17:12;;;;;;;;;;;9.40;64.40;;;;;;4976542;28;19910;-65
2022/01/23 10:19:38;;;;;;;;;;;9.50;64.80;;;;;;4976806;28;19910;-64
2022/01/23 10:22:05;;;;;;;;;;;9.60;64.20;;;;;;4976762;28;20336;-62
2022/01/23 10:24:31;;;;;;;;;;;9.30;64.90;;;;;;4976588;28;20373;-66
2022/01/23 10:26:59;;;;;;;;;;;9.20;65.90;;;;;;4975387;28;20006;-62
2022/01/23 10:29:29;;;;;;;;;;;9.10;65.50;;;;;;4974725;28;19985;-62
2022/01/23 10:32:04;;;;;;;;;;;9.30;65.50;;;;;;4974660;28;19917;-62
2022/01/23 10:34:43;;;;;;;;;;;9.50;65.10;;;;;;4976182;28;20338;-62
2022/01/23 10:37:09;;;;;;;;;;;9.80;63.30;;;;;;4973459;28;20453;-64
2022/01/23 10:39:42;;;;;;;;;;;10.10;62.50;;;;;;4974254;28;19914;-70
2022/01/23 10:47:49;;;;;;;;;;;10.50;59.30;;;;;;4976407;28;19971;-66
2022/01/23 10:50:15;;;;;;;;;;;10.30;59.20;;;;;;4956703;28;19922;-68
2022/01/23 10:52:45;;;;;;;;;;;10.40;59.50;;;;;;4974582;28;20278;-68
2022/01/23 10:55:11;;;;;;;;;;;10.60;59.10;;;;;;5007884;28;20374;-70
2022/01/23 10:57:37;;;;;;;;;;;10.50;59.40;;;;;;4976113;28;19918;-66
2022/01/23 11:00:06;;;;;;;;;;;10.70;59.20;;;;;;4975821;28;19933;-65
2022/01/23 11:02:31;;;;;;;;;;;10.80;59.40;;;;;;5005980;28;20434;-66
2022/01/23 11:05:00;;;;;;;;;;;10.80;59.20;;;;;;4975703;28;20004;-66
2022/01/23 11:07:26;;;;;;;;;;;10.80;58.50;;;;;;4976623;28;19918;-67
2022/01/23 11:09:59;;;;;;;;;;;10.70;58.50;;;;;;4975758;28;19914;-67
2022/01/23 11:12:44;;;;;;;;;;;10.80;58.40;;;;;;4975969;28;19957;-70
2022/01/23 11:17:56;;;;;;;;;;;10.90;58.20;;;;;;4976970;28;20008;-66
2022/01/23 11:20:29;;;;;;;;;;;11.10;58.10;;;;;;4982257;28;19973;-64
2022/01/23 11:23:14;;;;;;;;;;;11.30;57.40;;;;;;4987894;28;19997;-64
2022/01/23 11:25:43;;;;;;;;;;;11.60;57.40;;;;;;4986060;28;19957;-67
2022/01/23 11:28:09;;;;;;;;;;;11.60;57.50;;;;;;4985952;28;19917;-63
2022/01/23 11:30:42;;;;;;;;;;;11.80;57.40;;;;;;4985508;28;19942;-63
2022/01/23 11:33:09;;;;;;;;;;;11.90;57.30;;;;;;4976860;28;19920;-62
2022/01/23 11:35:35;;;;;;;;;;;11.90;56.90;;;;;;4974639;28;19914;-63
2022/01/23 11:38:01;;;;;;;;;;;12.00;56.90;;;;;;4974999;28;19946;-65
2022/01/23 11:54:39;;;;;;;;;;;12.00;55.40;;;;;;4972892;28;20274;-69
2022/01/23 11:57:24;;;;;;;;;;;11.70;56.30;;;;;;4975562;28;19910;-70
2022/01/23 11:59:50;;;;;;;;;;;11.40;57.20;;;;;;4975395;28;19918;-69
2022/01/23 12:02:27;;;;;;;;;;;11.20;58.70;;;;;;4965251;28;19926;-69
2022/01/23 12:05:21;;;;;;;;;;;11.30;58.30;;;;;;4956352;28;19917;-66
2022/01/23 12:08:07;;;;;;;;;;;11.50;58.00;;;;;;4954810;29;19918;-63
2022/01/23 12:10:49;;;;;;;;;;;11.60;57.80;;;;;;4970740;28;19910;-70
2022/01/23 12:13:22;;;;;;;;;;;11.60;57.40;;;;;;4955244;28;19975;-69
2022/01/23 12:18:38;;;;;;;;;;;11.80;57.20;;;;;;4955687;29;19972;-68
2022/01/23 12:21:04;;;;;;;;;;;11.50;57.20;;;;;;4955473;29;20345;-68
2022/01/23 12:23:49;;;;;;;;;;;11.60;57.70;;;;;;4955307;28;20374;-68
2022/01/23 12:26:19;;;;;;;;;;;11.80;57.90;;;;;;4955065;28;19914;-65
2022/01/23 12:28:46;;;;;;;;;;;11.90;57.80;;;;;;4986250;28;20351;-69
2022/01/23 12:31:14;;;;;;;;;;;12.00;57.40;;;;;;4969668;28;19917;-63
2022/01/23 12:33:40;;;;;;;;;;;12.10;57.90;;;;;;4953707;29;19949;-66
2022/01/23 12:36:26;;;;;;;;;;;12.10;57.00;;;;;;4955047;29;19958;-65
2022/01/23 12:39:14;;;;;;;;;;;12.20;56.90;;;;;;4947482;28;19977;-67
2022/01/23 12:41:41;;;;;;;;;;;12.00;56.80;;;;;;4968139;28;19929;-64
2022/01/23 12:44:22;;;;;;;;;;;11.90;58.00;;;;;;4971479;28;19914;-66
2022/01/23 12:46:51;;;;;;;;;;;11.70;57.80;;;;;;4977724;28;20003;-65
2022/01/23 12:49:26;;;;;;;;;;;11.80;58.20;;;;;;4973772;28;20312;-64
2022/01/23 12:51:53;;;;;;;;;;;11.90;57.80;;;;;;4976352;28;19989;-64
2022/01/23 12:54:27;;;;;;;;;;;11.90;57.40;;;;;;4974103;28;19910;-69
2022/01/23 12:56:53;;;;;;;;;;;11.90;57.40;;;;;;4974164;28;20278;-63
2022/01/23 12:59:26;;;;;;;;;;;12.00;57.20;;;;;;4974356;28;19968;-71
2022/01/23 13:01:58;;;;;;;;;;;12.00;56.80;;;;;;4974558;28;20015;-69
2022/01/23 13:04:24;;;;;;;;;;;12.10;56.70;;;;;;4974574;28;20001;-64
2022/01/23 13:07:02;;;;;;;;;;;12.00;57.10;;;;;;4989235;28;20044;-68
2022/01/23 13:12:12;;;;;;;;;;;11.90;57.70;;;;;;4976652;28;19925;-63
2022/01/23 13:31:14;;;;;;;;;;;11.70;58.20;;;;;;4973851;28;20358;-69
2022/01/23 13:33:40;;;;;;;;;;;11.70;58.30;;;;;;4973548;28;20314;-70
2022/01/23 13:36:07;;;;;;;;;;;11.70;57.80;;;;;;4973972;28;19914;-67
2022/01/23 13:38:34;;;;;;;;;;;11.60;58.30;;;;;;4977873;28;20282;-66
2022/01/23 13:41:09;;;;;;;;;;;11.60;58.60;;;;;;4983267;28;19942;-69
2022/01/23 13:51:10;;;;;;;;;;;11.60;58.60;;;;;;4971515;28;20013;-68
2022/01/23 13:52:36;;;;;;;;;;;11.40;59.50;;;;;;4989230;28;20001;-68
2022/01/23 13:58:12;;;;;;;;;;;11.50;59.30;;;;;;4978727;28;19917;-67
2022/01/23 14:00:33;;;;;;;;;;;11.50;58.90;;;;;;4977764;28;19933;-66
2022/01/23 14:02:59;;;;;;;;;;;11.50;59.00;;;;;;4992101;28;19919;-67
2022/01/23 14:05:30;;;;;;;;;;;11.40;58.60;;;;;;4977396;28;19945;-66
2022/01/23 14:07:57;;;;;;;;;;;11.40;58.90;;;;;;4977568;28;19910;-68
2022/01/23 14:10:27;;;;;;;;;;;11.40;59.00;;;;;;4977164;28;20247;-67
2022/01/23 14:12:53;;;;;;;;;;;11.30;59.30;;;;;;4977131;28;19917;-67
2022/01/23 14:15:23;;;;;;;;;;;11.30;59.60;;;;;;4977290;28;19910;-68
2022/01/23 14:17:56;;;;;;;;;;;11.20;59.60;;;;;;4977446;28;19977;-69
2022/01/23 14:20:23;;;;;;;;;;;11.00;59.60;;;;;;4977169;28;19945;-70
2022/01/23 14:22:49;;;;;;;;;;;11.00;60.10;;;;;;4976862;28;19929;-68
2022/01/23 14:25:14;;;;;;;;;;;11.10;60.00;;;;;;4977067;28;19914;-68
2022/01/23 14:27:41;;;;;;;;;;;11.00;59.50;;;;;;4976317;28;20001;-69
2022/01/23 14:30:14;;;;;;;;;;;11.00;59.10;;;;;;5007110;28;20333;-72
2022/01/23 14:32:44;;;;;;;;;;;11.10;58.90;;;;;;4985713;28;19910;-69
2022/01/23 14:35:18;;;;;;;;;;;11.20;58.90;;;;;;4981680;28;19960;-69
2022/01/23 14:37:45;;;;;;;;;;;11.20;58.40;;;;;;4976722;28;19911;-68
2022/01/23 14:40:11;;;;;;;;;;;11.10;58.60;;;;;;5010051;28;19911;-68
2022/01/23 14:42:36;;;;;;;;;;;11.00;58.40;;;;;;4976454;28;19965;-65
2022/01/23 14:45:08;;;;;;;;;;;10.90;59.00;;;;;;5008033;28;19921;-69
2022/01/23 14:47:38;;;;;;;;;;;10.80;59.80;;;;;;4975865;28;20252;-74
2022/01/23 14:50:06;;;;;;;;;;;10.60;60.40;;;;;;4976087;28;19910;-69
2022/01/23 14:52:32;;;;;;;;;;;10.50;60.60;;;;;;4977173;28;20259;-65
2022/01/23 14:54:58;;;;;;;;;;;10.40;61.30;;;;;;4973226;28;19910;-68
2022/01/23 14:57:23;;;;;;;;;;;10.30;61.80;;;;;;4978481;28;19910;-70
2022/01/23 14:59:49;;;;;;;;;;;10.00;62.60;;;;;;4983372;28;19914;-70
2022/01/23 15:02:15;;;;;;;;;;;10.00;63.00;;;;;;4977812;28;19932;-70
2022/01/23 15:04:45;;;;;;;;;;;10.00;63.20;;;;;;4975894;28;19917;-69
2022/01/23 15:07:15;;;;;;;;;;;9.90;63.70;;;;;;4975506;28;19922;-68
2022/01/23 15:09:41;;;;;;;;;;;9.70;64.30;;;;;;4978220;28;19914;-67
2022/01/23 15:12:07;;;;;;;;;;;9.70;64.70;;;;;;4975779;28;19910;-67
2022/01/23 15:14:32;;;;;;;;;;;9.70;65.20;;;;;;4975498;28;20421;-67
2022/01/23 15:16:58;;;;;;;;;;;9.60;65.30;;;;;;4975712;28;19921;-66
2022/01/23 15:19:25;;;;;;;;;;;9.50;65.70;;;;;;4976863;28;19914;-68
2022/01/23 15:21:51;;;;;;;;;;;9.50;66.10;;;;;;4978134;28;19945;-68
2022/01/23 15:24:16;;;;;;;;;;;9.60;65.60;;;;;;4975123;28;19910;-67
2022/01/23 15:26:42;;;;;;;;;;;9.60;65.70;;;;;;4974564;28;19922;-69
2022/01/23 15:29:07;;;;;;;;;;;9.60;65.50;;;;;;4982476;28;20497;-69
2022/01/23 15:31:33;;;;;;;;;;;9.60;65.60;;;;;;4976907;28;19918;-69
2022/01/23 15:33:59;;;;;;;;;;;9.50;65.70;;;;;;4975075;28;20049;-67
2022/01/23 15:36:24;;;;;;;;;;;9.50;65.90;;;;;;4974981;28;19917;-67
2022/01/23 15:38:50;;;;;;;;;;;9.50;65.80;;;;;;4974287;28;19925;-69
2022/01/23 15:41:16;;;;;;;;;;;9.40;65.80;;;;;;4973881;28;20701;-69
2022/01/23 15:43:41;;;;;;;;;;;9.40;65.70;;;;;;4974170;28;19921;-68
2022/01/23 15:46:07;;;;;;;;;;;9.30;66.00;;;;;;4973579;28;19917;-66
2022/01/23 15:48:33;;;;;;;;;;;9.20;65.80;;;;;;4973671;28;19910;-68
2022/01/23 15:51:02;;;;;;;;;;;9.80;76.00;;;;;;4973377;28;19918;-67
2022/01/23 15:53:28;;;;;;;;;;;10.10;66.00;;;;;;4974841;28;19914;-61
2022/01/23 15:55:54;;;;;;;;;;;9.90;63.50;;;;;;4974808;28;19933;-64
2022/01/23 15:58:19;;;;;;;;;;;9.90;63.40;;;;;;4975218;28;19910;-65
2022/01/23 16:00:45;;;;;;;;;;;9.90;62.70;;;;;;4974949;28;19918;-64
2022/01/23 16:03:11;;;;;;;;;;;9.80;63.00;;;;;;4975037;28;19918;-63
2022/01/23 16:05:38;;;;;;;;;;;9.50;63.80;;;;;;4972378;28;19925;-63
2022/01/23 16:08:04;;;;;;;;;;;9.40;64.40;;;;;;4972426;28;20373;-65
2022/01/23 16:10:30;;;;;;;;;;;9.30;64.30;;;;;;4973572;28;19914;-62
2022/01/23 16:12:55;;;;;;;;;;;9.20;64.70;;;;;;4974043;28;19914;-66
2022/01/23 16:15:21;;;;;;;;;;;9.00;65.40;;;;;;4973474;28;20313;-66
2022/01/23 16:17:48;;;;;;;;;;;9.00;65.90;;;;;;4973589;28;20021;-61
2022/01/23 16:20:14;;;;;;;;;;;8.90;66.40;;;;;;4973856;28;20285;-63
2022/01/23 16:22:40;;;;;;;;;;;8.80;66.80;;;;;;4973341;28;19918;-69
2022/01/23 16:25:06;;;;;;;;;;;8.70;67.20;;;;;;4974023;28;20322;-68
2022/01/23 16:27:32;;;;;;;;;;;8.60;67.40;;;;;;4972662;28;19914;-73
2022/01/23 16:29:58;;;;;;;;;;;8.60;67.70;;;;;;4973419;28;19921;-69
2022/01/23 16:32:23;;;;;;;;;;;8.50;68.10;;;;;;4973371;28;20097;-64
2022/01/23 16:34:49;;;;;;;;;;;8.40;68.30;;;;;;4972927;28;19914;-64
2022/01/23 16:37:14;;;;;;;;;;;8.30;68.60;;;;;;4973353;28;20028;-63
2022/01/23 16:39:40;;;;;;;;;;;8.20;68.80;;;;;;4973150;28;19914;-67
2022/01/23 16:42:06;;;;;;;;;;;8.40;68.20;;;;;;4973386;28;20378;-64
2022/01/23 16:44:32;;;;;;;;;;;8.30;68.00;;;;;;4973361;28;19968;-69
2022/01/23 16:46:58;;;;;;;;;;;8.20;68.60;;;;;;4972862;28;20009;-66
2022/01/23 16:49:24;;;;;;;;;;;8.10;68.80;;;;;;4973327;28;20350;-66
2022/01/23 16:51:49;;;;;;;;;;;8.00;69.20;;;;;;4972075;28;20362;-67
2022/01/23 16:54:16;;;;;;;;;;;7.80;69.50;;;;;;4972741;28;19918;-66
2022/01/23 16:56:42;;;;;;;;;;;7.80;69.90;;;;;;4973958;28;19911;-63
2022/01/23 16:59:09;;;;;;;;;;;7.70;70.00;;;;;;4973801;28;19910;-65
2022/01/23 17:01:35;;;;;;;;;;;7.80;70.40;;;;;;4974743;28;19914;-67
2022/01/23 17:04:03;;;;;;;;;;;7.70;69.80;;;;;;4975775;28;20028;-66
2022/01/23 17:06:30;;;;;;;;;;;7.60;69.80;;;;;;4975309;28;19973;-66
2022/01/23 17:08:56;;;;;;;;;;;7.60;70.10;;;;;;4974640;28;19914;-67
2022/01/23 17:11:22;;;;;;;;;;;7.60;70.10;;;;;;4977299;28;19926;-66
2022/01/23 17:13:48;;;;;;;;;;;7.60;69.80;;;;;;4977056;28;20004;-65
2022/01/23 17:16:15;;;;;;;;;;;7.60;69.90;;;;;;4982688;28;19950;-63
2022/01/23 17:18:41;;;;;;;;;;;7.70;69.40;;;;;;4989973;28;19914;-66
2022/01/23 17:21:07;;;;;;;;;;;7.80;69.20;;;;;;4987654;28;20000;-63
2022/01/23 17:23:33;;;;;;;;;;;7.80;68.50;;;;;;4983988;28;19948;-65
2022/01/23 17:25:59;;;;;;;;;;;7.60;68.70;;;;;;4982164;28;19914;-65
2022/01/23 17:28:24;;;;;;;;;;;7.60;69.30;;;;;;4979434;28;19910;-66
2022/01/23 17:30:50;;;;;;;;;;;7.50;69.60;;;;;;4976411;28;19915;-61
2022/01/23 17:33:15;;;;;;;;;;;7.40;69.70;;;;;;4977684;28;19914;-64
2022/01/23 17:35:41;;;;;;;;;;;7.30;69.90;;;;;;4977706;28;19933;-63
2022/01/23 17:38:06;;;;;;;;;;;7.30;69.90;;;;;;4986782;28;19958;-60
2022/01/23 17:40:32;;;;;;;;;;;7.20;70.10;;;;;;4984480;28;19915;-60
2022/01/23 17:42:58;;;;;;;;;;;7.10;70.30;;;;;;4986043;28;19926;-67
2022/01/23 17:45:29;;;;;;;;;;;7.10;70.50;;;;;;4990131;28;19920;-63
2022/01/23 17:50:28;;;;;;;;;;;7.00;70.80;;;;;;4976796;28;19910;-62
2022/01/23 17:52:54;;;;;;;;;;;6.80;71.00;;;;;;4976812;28;20025;-63
2022/01/23 17:55:21;;;;;;;;;;;7.00;71.60;;;;;;4976428;28;20248;-63
2022/01/23 17:57:47;;;;;;;;;;;7.00;70.40;;;;;;4976430;28;19997;-65
2022/01/23 18:00:13;;;;;;;;;;;7.00;70.80;;;;;;5008520;28;20366;-64
2022/01/23 18:02:41;;;;;;;;;;;7.00;71.10;;;;;;4977829;28;19922;-67